sensor_id;sensor_type;location;lat;lon;timestamp;temperature;humidity
65573;SHT30;52214;50.940;13.996;2023-03-01T00:01:35;3.73;88.38
65573;SHT30;52214;50.940;13.996;2023-03-01T00:04:01;3.70;88.28
65573;SHT30;52214;50.940;13.996;2023-03-01T00:06:27;3.72;88.29
65573;SHT30;52214;50.940;13.996;2023-03-01T00:08:54;3.69;88.26
65573;SHT30;52214;50.940;13.996;2023-03-01T00:11:23;3.67;88.22
65573;SHT30;52214;50.940;13.996;2023-03-01T00:13:52;3.66;88.25
65573;SHT30;52214;50.940;13.996;2023-03-01T00:16:22;3.64;88.26
65573;SHT30;52214;50.940;13.996;2023-03-01T00:18:48;3.62;88.26
65573;SHT30;52214;50.940;13.996;2023-03-01T00:21:14;3.62;88.27
65573;SHT30;52214;50.940;13.996;2023-03-01T00:23:39;3.60;88.21
65573;SHT30;52214;50.940;13.996;2023-03-01T00:26:07;3.62;88.25
65573;SHT30;52214;50.940;13.996;2023-03-01T00:28:33;3.59;88.22
65573;SHT30;52214;50.940;13.996;2023-03-01T00:31:04;3.56;88.22
65573;SHT30;52214;50.940;13.996;2023-03-01T00:33:30;3.56;88.25
65573;SHT30;52214;50.940;13.996;2023-03-01T00:35:58;3.55;88.17
65573;SHT30;52214;50.940;13.996;2023-03-01T00:38:24;3.56;88.23
65573;SHT30;52214;50.940;13.996;2023-03-01T00:40:49;3.53;88.16
65573;SHT30;52214;50.940;13.996;2023-03-01T00:43:15;3.53;88.20
65573;SHT30;52214;50.940;13.996;2023-03-01T00:45:40;3.53;88.14
65573;SHT30;52214;50.940;13.996;2023-03-01T00:48:06;3.53;88.13
65573;SHT30;52214;50.940;13.996;2023-03-01T00:50:32;3.55;88.08
65573;SHT30;52214;50.940;13.996;2023-03-01T00:52:57;3.51;88.10
65573;SHT30;52214;50.940;13.996;2023-03-01T00:55:24;3.48;88.11
65573;SHT30;52214;50.940;13.996;2023-03-01T00:57:51;3.49;88.13
65573;SHT30;52214;50.940;13.996;2023-03-01T01:00:19;3.49;88.15
65573;SHT30;52214;50.940;13.996;2023-03-01T01:02:45;3.46;88.05
65573;SHT30;52214;50.940;13.996;2023-03-01T01:05:12;3.49;88.07
65573;SHT30;52214;50.940;13.996;2023-03-01T01:07:38;3.46;88.09
65573;SHT30;52214;50.940;13.996;2023-03-01T01:10:03;3.46;88.04
65573;SHT30;52214;50.940;13.996;2023-03-01T01:12:29;3.45;88.01
65573;SHT30;52214;50.940;13.996;2023-03-01T01:14:55;3.46;87.99
65573;SHT30;52214;50.940;13.996;2023-03-01T01:17:21;3.45;88.03
65573;SHT30;52214;50.940;13.996;2023-03-01T01:19:46;3.45;87.99
65573;SHT30;52214;50.940;13.996;2023-03-01T01:22:12;3.40;88.00
65573;SHT30;52214;50.940;13.996;2023-03-01T01:24:37;3.45;87.98
65573;SHT30;52214;50.940;13.996;2023-03-01T01:27:03;3.40;87.96
65573;SHT30;52214;50.940;13.996;2023-03-01T01:29:29;3.34;88.04
65573;SHT30;52214;50.940;13.996;2023-03-01T01:31:54;3.39;88.04
65573;SHT30;52214;50.940;13.996;2023-03-01T01:34:22;3.36;88.04
65573;SHT30;52214;50.940;13.996;2023-03-01T01:36:49;3.34;88.06
65573;SHT30;52214;50.940;13.996;2023-03-01T01:39:18;3.38;87.99
65573;SHT30;52214;50.940;13.996;2023-03-01T01:41:43;3.36;87.96
65573;SHT30;52214;50.940;13.996;2023-03-01T01:44:26;3.35;87.93
65573;SHT30;52214;50.940;13.996;2023-03-01T01:46:55;3.34;87.92
65573;SHT30;52214;50.940;13.996;2023-03-01T01:49:35;3.35;87.96
65573;SHT30;52214;50.940;13.996;2023-03-01T01:52:09;3.32;87.92
65573;SHT30;52214;50.940;13.996;2023-03-01T01:54:44;3.34;87.93
65573;SHT30;52214;50.940;13.996;2023-03-01T01:57:14;3.31;87.93
65573;SHT30;52214;50.940;13.996;2023-03-01T01:59:44;3.31;87.90
65573;SHT30;52214;50.940;13.996;2023-03-01T02:02:12;3.27;87.94
65573;SHT30;52214;50.940;13.996;2023-03-01T02:04:38;3.29;87.94
65573;SHT30;52214;50.940;13.996;2023-03-01T02:07:19;3.25;87.96
65573;SHT30;52214;50.940;13.996;2023-03-01T02:09:48;3.25;88.00
65573;SHT30;52214;50.940;13.996;2023-03-01T02:12:20;3.29;87.83
65573;SHT30;52214;50.940;13.996;2023-03-01T02:14:46;3.24;87.83
65573;SHT30;52214;50.940;13.996;2023-03-01T02:17:15;3.25;87.84
65573;SHT30;52214;50.940;13.996;2023-03-01T02:20:10;3.19;87.87
65573;SHT30;52214;50.940;13.996;2023-03-01T02:22:38;3.21;87.91
65573;SHT30;52214;50.940;13.996;2023-03-01T02:25:31;3.19;87.86
65573;SHT30;52214;50.940;13.996;2023-03-01T02:30:53;3.15;87.91
65573;SHT30;52214;50.940;13.996;2023-03-01T02:33:39;3.15;87.92
65573;SHT30;52214;50.940;13.996;2023-03-01T02:36:09;3.12;87.93
65573;SHT30;52214;50.940;13.996;2023-03-01T02:38:35;3.12;88.01
65573;SHT30;52214;50.940;13.996;2023-03-01T02:41:02;3.09;87.94
65573;SHT30;52214;50.940;13.996;2023-03-01T02:43:31;3.09;87.99
65573;SHT30;52214;50.940;13.996;2023-03-01T02:46:05;3.05;88.04
65573;SHT30;52214;50.940;13.996;2023-03-01T02:48:41;3.07;88.04
65573;SHT30;52214;50.940;13.996;2023-03-01T02:51:33;3.07;88.03
65573;SHT30;52214;50.940;13.996;2023-03-01T02:54:17;3.04;88.08
65573;SHT30;52214;50.940;13.996;2023-03-01T02:56:45;3.03;88.06
65573;SHT30;52214;50.940;13.996;2023-03-01T02:59:19;3.03;88.06
65573;SHT30;52214;50.940;13.996;2023-03-01T03:01:45;3.01;87.97
65573;SHT30;52214;50.940;13.996;2023-03-01T03:04:15;3.01;88.05
65573;SHT30;52214;50.940;13.996;2023-03-01T03:06:44;3.03;87.96
65573;SHT30;52214;50.940;13.996;2023-03-01T03:09:14;3.01;88.01
65573;SHT30;52214;50.940;13.996;2023-03-01T03:11:41;2.98;87.98
65573;SHT30;52214;50.940;13.996;2023-03-01T03:14:10;3.00;88.01
65573;SHT30;52214;50.940;13.996;2023-03-01T03:16:46;2.98;88.00
65573;SHT30;52214;50.940;13.996;2023-03-01T03:19:13;2.97;88.01
65573;SHT30;52214;50.940;13.996;2023-03-01T03:21:39;2.96;88.02
65573;SHT30;52214;50.940;13.996;2023-03-01T03:24:05;2.94;88.08
65573;SHT30;52214;50.940;13.996;2023-03-01T03:26:32;2.97;88.06
65573;SHT30;52214;50.940;13.996;2023-03-01T03:28:58;2.96;87.97
65573;SHT30;52214;50.940;13.996;2023-03-01T03:31:24;2.97;88.00
65573;SHT30;52214;50.940;13.996;2023-03-01T03:33:50;2.96;87.98
65573;SHT30;52214;50.940;13.996;2023-03-01T03:36:17;2.91;88.00
65573;SHT30;52214;50.940;13.996;2023-03-01T03:38:44;2.94;87.94
65573;SHT30;52214;50.940;13.996;2023-03-01T03:41:12;2.90;88.08
65573;SHT30;52214;50.940;13.996;2023-03-01T03:43:39;2.90;87.99
65573;SHT30;52214;50.940;13.996;2023-03-01T03:46:06;2.91;88.04
65573;SHT30;52214;50.940;13.996;2023-03-01T03:48:35;2.90;88.00
65573;SHT30;52214;50.940;13.996;2023-03-01T03:51:01;2.89;88.04
65573;SHT30;52214;50.940;13.996;2023-03-01T03:53:28;2.89;88.01
65573;SHT30;52214;50.940;13.996;2023-03-01T03:55:54;2.84;88.02
65573;SHT30;52214;50.940;13.996;2023-03-01T03:58:23;2.83;88.12
65573;SHT30;52214;50.940;13.996;2023-03-01T04:00:52;2.84;88.08
65573;SHT30;52214;50.940;13.996;2023-03-01T04:03:19;2.84;88.05
65573;SHT30;52214;50.940;13.996;2023-03-01T04:05:46;2.84;88.07
65573;SHT30;52214;50.940;13.996;2023-03-01T04:08:13;2.86;87.92
65573;SHT30;52214;50.940;13.996;2023-03-01T04:10:41;2.83;87.95
65573;SHT30;52214;50.940;13.996;2023-03-01T04:13:10;2.84;87.96
65573;SHT30;52214;50.940;13.996;2023-03-01T04:15:36;2.83;87.95
65573;SHT30;52214;50.940;13.996;2023-03-01T04:18:03;2.79;88.00
65573;SHT30;52214;50.940;13.996;2023-03-01T04:20:32;2.81;88.01
65573;SHT30;52214;50.940;13.996;2023-03-01T04:23:04;2.81;87.98
65573;SHT30;52214;50.940;13.996;2023-03-01T04:25:51;2.79;87.98
65573;SHT30;52214;50.940;13.996;2023-03-01T04:28:26;2.79;88.05
65573;SHT30;52214;50.940;13.996;2023-03-01T04:30:53;2.77;88.03
65573;SHT30;52214;50.940;13.996;2023-03-01T04:33:20;2.77;88.05
65573;SHT30;52214;50.940;13.996;2023-03-01T04:35:45;2.73;88.04
65573;SHT30;52214;50.940;13.996;2023-03-01T04:38:11;2.73;88.05
65573;SHT30;52214;50.940;13.996;2023-03-01T04:40:37;2.72;88.08
65573;SHT30;52214;50.940;13.996;2023-03-01T04:43:03;2.72;88.03
65573;SHT30;52214;50.940;13.996;2023-03-01T04:45:29;2.72;88.04
65573;SHT30;52214;50.940;13.996;2023-03-01T04:47:55;2.72;88.04
65573;SHT30;52214;50.940;13.996;2023-03-01T04:50:24;2.73;88.00
65573;SHT30;52214;50.940;13.996;2023-03-01T04:52:51;2.69;88.04
65573;SHT30;52214;50.940;13.996;2023-03-01T04:55:17;2.72;87.97
65573;SHT30;52214;50.940;13.996;2023-03-01T04:57:43;2.69;88.03
65573;SHT30;52214;50.940;13.996;2023-03-01T05:00:12;2.67;88.03
65573;SHT30;52214;50.940;13.996;2023-03-01T05:02:48;2.67;88.05
65573;SHT30;52214;50.940;13.996;2023-03-01T05:05:15;2.70;88.06
65573;SHT30;52214;50.940;13.996;2023-03-01T05:07:40;2.69;87.98
65573;SHT30;52214;50.940;13.996;2023-03-01T05:10:06;2.66;88.01
65573;SHT30;52214;50.940;13.996;2023-03-01T05:12:32;2.66;87.98
65573;SHT30;52214;50.940;13.996;2023-03-01T05:15:01;2.66;88.02
65573;SHT30;52214;50.940;13.996;2023-03-01T05:17:44;2.66;87.96
65573;SHT30;52214;50.940;13.996;2023-03-01T05:20:10;2.64;87.97
65573;SHT30;52214;50.940;13.996;2023-03-01T05:22:36;2.63;87.99
65573;SHT30;52214;50.940;13.996;2023-03-01T05:25:03;2.62;87.93
65573;SHT30;52214;50.940;13.996;2023-03-01T05:27:30;2.64;88.00
65573;SHT30;52214;50.940;13.996;2023-03-01T05:29:56;2.63;87.98
65573;SHT30;52214;50.940;13.996;2023-03-01T05:32:21;2.60;88.00
65573;SHT30;52214;50.940;13.996;2023-03-01T05:34:47;2.60;87.98
65573;SHT30;52214;50.940;13.996;2023-03-01T05:37:13;2.60;87.97
65573;SHT30;52214;50.940;13.996;2023-03-01T05:39:39;2.57;87.94
65573;SHT30;52214;50.940;13.996;2023-03-01T05:42:04;2.57;88.06
65573;SHT30;52214;50.940;13.996;2023-03-01T05:44:30;2.57;88.01
65573;SHT30;52214;50.940;13.996;2023-03-01T05:46:56;2.59;87.94
65573;SHT30;52214;50.940;13.996;2023-03-01T05:49:22;2.57;87.97
65573;SHT30;52214;50.940;13.996;2023-03-01T05:51:51;2.60;87.95
65573;SHT30;52214;50.940;13.996;2023-03-01T05:54:17;2.60;87.95
65573;SHT30;52214;50.940;13.996;2023-03-01T05:56:43;2.59;87.93
65573;SHT30;52214;50.940;13.996;2023-03-01T05:59:09;2.59;87.89
65573;SHT30;52214;50.940;13.996;2023-03-01T06:01:35;2.57;87.95
65573;SHT30;52214;50.940;13.996;2023-03-01T06:04:02;2.59;87.91
65573;SHT30;52214;50.940;13.996;2023-03-01T06:06:28;2.57;87.89
65573;SHT30;52214;50.940;13.996;2023-03-01T06:08:54;2.59;87.90
65573;SHT30;52214;50.940;13.996;2023-03-01T06:11:21;2.55;87.90
65573;SHT30;52214;50.940;13.996;2023-03-01T06:13:47;2.55;87.92
65573;SHT30;52214;50.940;13.996;2023-03-01T06:16:13;2.53;87.95
65573;SHT30;52214;50.940;13.996;2023-03-01T06:18:40;2.55;87.97
65573;SHT30;52214;50.940;13.996;2023-03-01T06:21:07;2.55;87.91
65573;SHT30;52214;50.940;13.996;2023-03-01T06:23:34;2.55;87.93
65573;SHT30;52214;50.940;13.996;2023-03-01T06:26:00;2.53;87.89
65573;SHT30;52214;50.940;13.996;2023-03-01T06:28:26;2.52;87.92
65573;SHT30;52214;50.940;13.996;2023-03-01T06:30:52;2.52;87.89
65573;SHT30;52214;50.940;13.996;2023-03-01T06:33:19;2.49;87.98
65573;SHT30;52214;50.940;13.996;2023-03-01T06:35:47;2.50;87.88
65573;SHT30;52214;50.940;13.996;2023-03-01T06:38:12;2.50;87.88
65573;SHT30;52214;50.940;13.996;2023-03-01T06:40:40;2.52;87.88
65573;SHT30;52214;50.940;13.996;2023-03-01T06:43:06;2.50;87.86
65573;SHT30;52214;50.940;13.996;2023-03-01T06:45:33;2.50;87.88
65573;SHT30;52214;50.940;13.996;2023-03-01T06:48:07;2.50;87.86
65573;SHT30;52214;50.940;13.996;2023-03-01T06:50:34;2.49;87.83
65573;SHT30;52214;50.940;13.996;2023-03-01T06:52:59;2.48;87.81
65573;SHT30;52214;50.940;13.996;2023-03-01T06:55:25;2.50;87.80
65573;SHT30;52214;50.940;13.996;2023-03-01T06:58:00;2.48;87.81
65573;SHT30;52214;50.940;13.996;2023-03-01T07:00:27;2.49;87.78
65573;SHT30;52214;50.940;13.996;2023-03-01T07:02:53;2.49;87.73
65573;SHT30;52214;50.940;13.996;2023-03-01T07:05:19;2.50;87.73
65573;SHT30;52214;50.940;13.996;2023-03-01T07:07:45;2.49;87.69
65573;SHT30;52214;50.940;13.996;2023-03-01T07:10:11;2.53;87.64
65573;SHT30;52214;50.940;13.996;2023-03-01T07:12:37;2.52;87.63
65573;SHT30;52214;50.940;13.996;2023-03-01T07:15:03;2.52;87.55
65573;SHT30;52214;50.940;13.996;2023-03-01T07:17:29;2.52;87.50
65573;SHT30;52214;50.940;13.996;2023-03-01T07:19:55;2.57;87.46
65573;SHT30;52214;50.940;13.996;2023-03-01T07:22:20;2.56;87.47
65573;SHT30;52214;50.940;13.996;2023-03-01T07:24:46;2.55;87.45
65573;SHT30;52214;50.940;13.996;2023-03-01T07:27:11;2.57;87.38
65573;SHT30;52214;50.940;13.996;2023-03-01T07:29:37;2.59;87.42
65573;SHT30;52214;50.940;13.996;2023-03-01T07:32:04;2.56;87.45
65573;SHT30;52214;50.940;13.996;2023-03-01T07:34:29;2.62;87.30
65573;SHT30;52214;50.940;13.996;2023-03-01T07:36:55;2.60;87.29
65573;SHT30;52214;50.940;13.996;2023-03-01T07:39:21;2.63;87.27
65573;SHT30;52214;50.940;13.996;2023-03-01T07:41:49;2.64;87.19
65573;SHT30;52214;50.940;13.996;2023-03-01T07:44:15;2.67;87.13
65573;SHT30;52214;50.940;13.996;2023-03-01T07:46:42;2.67;87.04
65573;SHT30;52214;50.940;13.996;2023-03-01T07:49:09;2.73;87.01
65573;SHT30;52214;50.940;13.996;2023-03-01T07:51:35;2.72;86.99
65573;SHT30;52214;50.940;13.996;2023-03-01T07:54:01;2.76;86.91
65573;SHT30;52214;50.940;13.996;2023-03-01T07:56:28;2.80;86.84
65573;SHT30;52214;50.940;13.996;2023-03-01T07:58:54;2.79;86.83
65573;SHT30;52214;50.940;13.996;2023-03-01T08:01:21;2.80;86.78
65573;SHT30;52214;50.940;13.996;2023-03-01T08:03:47;2.86;86.71
65573;SHT30;52214;50.940;13.996;2023-03-01T08:06:15;2.90;86.58
65573;SHT30;52214;50.940;13.996;2023-03-01T08:08:42;2.96;86.51
65573;SHT30;52214;50.940;13.996;2023-03-01T08:11:11;2.96;86.46
65573;SHT30;52214;50.940;13.996;2023-03-01T08:13:40;2.97;86.43
65573;SHT30;52214;50.940;13.996;2023-03-01T08:16:09;3.01;86.43
65573;SHT30;52214;50.940;13.996;2023-03-01T08:18:40;3.04;86.31
65573;SHT30;52214;50.940;13.996;2023-03-01T08:21:16;3.05;86.33
65573;SHT30;52214;50.940;13.996;2023-03-01T08:23:48;3.05;86.27
65573;SHT30;52214;50.940;13.996;2023-03-01T08:26:23;3.08;86.26
65573;SHT30;52214;50.940;13.996;2023-03-01T08:29:00;3.11;86.20
65573;SHT30;52214;50.940;13.996;2023-03-01T08:31:38;3.14;86.14
65573;SHT30;52214;50.940;13.996;2023-03-01T08:34:08;3.17;86.11
65573;SHT30;52214;50.940;13.996;2023-03-01T08:36:38;3.17;86.11
65573;SHT30;52214;50.940;13.996;2023-03-01T08:39:06;3.12;86.19
65573;SHT30;52214;50.940;13.996;2023-03-01T08:41:39;3.17;86.25
65573;SHT30;52214;50.940;13.996;2023-03-01T08:44:17;3.18;86.19
65573;SHT30;52214;50.940;13.996;2023-03-01T08:46:45;3.19;86.21
65573;SHT30;52214;50.940;13.996;2023-03-01T08:49:14;3.19;86.18
65573;SHT30;52214;50.940;13.996;2023-03-01T08:51:40;3.24;86.17
65573;SHT30;52214;50.940;13.996;2023-03-01T08:54:12;3.25;86.15
65573;SHT30;52214;50.940;13.996;2023-03-01T08:56:40;3.28;86.13
65573;SHT30;52214;50.940;13.996;2023-03-01T08:59:06;3.29;86.08
65573;SHT30;52214;50.940;13.996;2023-03-01T09:01:36;3.34;85.96
65573;SHT30;52214;50.940;13.996;2023-03-01T09:04:12;3.36;85.89
65573;SHT30;52214;50.940;13.996;2023-03-01T09:06:43;3.40;85.83
65573;SHT30;52214;50.940;13.996;2023-03-01T09:09:15;3.46;85.76
65573;SHT30;52214;50.940;13.996;2023-03-01T09:11:41;3.51;85.67
65573;SHT30;52214;50.940;13.996;2023-03-01T09:14:07;3.55;85.55
65573;SHT30;52214;50.940;13.996;2023-03-01T09:16:33;3.59;85.44
65573;SHT30;52214;50.940;13.996;2023-03-01T09:19:02;3.67;85.35
65573;SHT30;52214;50.940;13.996;2023-03-01T09:21:28;3.73;85.21
65573;SHT30;52214;50.940;13.996;2023-03-01T09:23:56;3.81;85.02
65573;SHT30;52214;50.940;13.996;2023-03-01T09:26:22;3.86;84.87
65573;SHT30;52214;50.940;13.996;2023-03-01T09:28:51;3.90;84.82
65573;SHT30;52214;50.940;13.996;2023-03-01T09:31:20;3.93;84.72
65573;SHT30;52214;50.940;13.996;2023-03-01T09:33:47;3.97;84.74
65573;SHT30;52214;50.940;13.996;2023-03-01T09:36:16;4.00;84.61
65573;SHT30;52214;50.940;13.996;2023-03-01T09:38:42;4.07;84.47
65573;SHT30;52214;50.940;13.996;2023-03-01T09:43:49;4.11;84.46
65573;SHT30;52214;50.940;13.996;2023-03-01T09:46:21;4.18;84.57
65573;SHT30;52214;50.940;13.996;2023-03-01T09:49:24;4.21;84.51
65573;SHT30;52214;50.940;13.996;2023-03-01T09:54:19;4.28;84.61
65573;SHT30;52214;50.940;13.996;2023-03-01T09:56:59;4.31;84.48
65573;SHT30;52214;50.940;13.996;2023-03-01T09:59:51;4.36;84.49
65573;SHT30;52214;50.940;13.996;2023-03-01T10:10:36;4.55;84.25
65573;SHT30;52214;50.940;13.996;2023-03-01T10:18:25;4.64;84.23
65573;SHT30;52214;50.940;13.996;2023-03-01T10:20:56;4.69;84.21
65573;SHT30;52214;50.940;13.996;2023-03-01T10:23:24;4.70;84.24
65573;SHT30;52214;50.940;13.996;2023-03-01T10:26:04;4.72;84.27
65573;SHT30;52214;50.940;13.996;2023-03-01T10:28:47;4.69;84.31
65573;SHT30;52214;50.940;13.996;2023-03-01T10:31:20;4.72;84.42
65573;SHT30;52214;50.940;13.996;2023-03-01T10:33:48;4.73;84.45
65573;SHT30;52214;50.940;13.996;2023-03-01T10:36:17;4.73;84.48
65573;SHT30;52214;50.940;13.996;2023-03-01T10:38:53;4.74;84.54
65573;SHT30;52214;50.940;13.996;2023-03-01T10:41:22;4.77;84.61
65573;SHT30;52214;50.940;13.996;2023-03-01T10:43:53;4.77;84.64
65573;SHT30;52214;50.940;13.996;2023-03-01T10:46:27;4.79;84.67
65573;SHT30;52214;50.940;13.996;2023-03-01T10:49:18;4.80;84.77
65573;SHT30;52214;50.940;13.996;2023-03-01T10:54:20;4.80;84.86
65573;SHT30;52214;50.940;13.996;2023-03-01T10:56:51;4.80;84.98
65573;SHT30;52214;50.940;13.996;2023-03-01T10:59:25;4.80;85.04
65573;SHT30;52214;50.940;13.996;2023-03-01T11:02:15;4.77;85.13
65573;SHT30;52214;50.940;13.996;2023-03-01T11:07:22;4.81;85.33
65573;SHT30;52214;50.940;13.996;2023-03-01T11:09:48;4.84;85.44
65573;SHT30;52214;50.940;13.996;2023-03-01T11:12:15;4.84;85.44
65573;SHT30;52214;50.940;13.996;2023-03-01T11:14:51;4.85;85.46
65573;SHT30;52214;50.940;13.996;2023-03-01T11:17:24;4.90;85.45
65573;SHT30;52214;50.940;13.996;2023-03-01T11:25:17;4.92;85.49
65573;SHT30;52214;50.940;13.996;2023-03-01T11:27:47;4.94;85.53
65573;SHT30;52214;50.940;13.996;2023-03-01T11:30:24;4.95;85.59
65573;SHT30;52214;50.940;13.996;2023-03-01T11:33:33;4.94;85.62
65573;SHT30;52214;50.940;13.996;2023-03-01T11:36:07;4.94;85.65
65573;SHT30;52214;50.940;13.996;2023-03-01T11:38:35;4.95;85.69
65573;SHT30;52214;50.940;13.996;2023-03-01T11:41:11;4.98;85.73
65573;SHT30;52214;50.940;13.996;2023-03-01T11:43:52;4.97;85.77
65573;SHT30;52214;50.940;13.996;2023-03-01T11:46:42;4.98;85.80
65573;SHT30;52214;50.940;13.996;2023-03-01T12:00:44;5.08;85.91
65573;SHT30;52214;50.940;13.996;2023-03-01T12:03:55;5.09;85.94
65573;SHT30;52214;50.940;13.996;2023-03-01T12:06:41;5.12;86.01
65573;SHT30;52214;50.940;13.996;2023-03-01T12:09:22;5.18;86.07
65573;SHT30;52214;50.940;13.996;2023-03-01T12:12:07;5.21;86.09
65573;SHT30;52214;50.940;13.996;2023-03-01T12:20:26;5.27;86.42
65573;SHT30;52214;50.940;13.996;2023-03-01T12:31:29;5.35;86.87
65573;SHT30;52214;50.940;13.996;2023-03-01T12:34:03;5.38;86.92
65573;SHT30;52214;50.940;13.996;2023-03-01T12:36:43;5.39;87.09
65573;SHT30;52214;50.940;13.996;2023-03-01T12:39:36;5.40;87.19
65573;SHT30;52214;50.940;13.996;2023-03-01T12:50:25;5.46;87.60
65573;SHT30;52214;50.940;13.996;2023-03-01T12:52:57;5.50;87.72
65573;SHT30;52214;50.940;13.996;2023-03-01T12:55:33;5.52;87.80
65573;SHT30;52214;50.940;13.996;2023-03-01T12:58:09;5.53;87.91
65573;SHT30;52214;50.940;13.996;2023-03-01T13:00:45;5.56;88.07
65573;SHT30;52214;50.940;13.996;2023-03-01T13:03:25;5.56;88.16
65573;SHT30;52214;50.940;13.996;2023-03-01T13:06:11;5.62;88.26
65573;SHT30;52214;50.940;13.996;2023-03-01T13:08:48;5.62;88.36
65573;SHT30;52214;50.940;13.996;2023-03-01T13:11:20;5.63;88.45
65573;SHT30;52214;50.940;13.996;2023-03-01T13:13:47;5.64;88.49
65573;SHT30;52214;50.940;13.996;2023-03-01T13:16:41;5.66;88.58
65573;SHT30;52214;50.940;13.996;2023-03-01T13:19:27;5.69;88.65
65573;SHT30;52214;50.940;13.996;2023-03-01T13:21:55;5.70;88.78
65573;SHT30;52214;50.940;13.996;2023-03-01T13:24:27;5.74;88.89
65573;SHT30;52214;50.940;13.996;2023-03-01T13:27:18;5.73;88.91
65573;SHT30;52214;50.940;13.996;2023-03-01T13:29:52;5.75;88.91
65573;SHT30;52214;50.940;13.996;2023-03-01T13:32:29;5.81;89.01
65573;SHT30;52214;50.940;13.996;2023-03-01T13:35:03;5.80;89.08
65573;SHT30;52214;50.940;13.996;2023-03-01T13:37:47;5.81;89.14
65573;SHT30;52214;50.940;13.996;2023-03-01T13:43:30;5.86;89.27
65573;SHT30;52214;50.940;13.996;2023-03-01T13:45:57;5.86;89.32
65573;SHT30;52214;50.940;13.996;2023-03-01T13:48:28;5.90;89.44
65573;SHT30;52214;50.940;13.996;2023-03-01T13:50:58;5.94;89.49
65573;SHT30;52214;50.940;13.996;2023-03-01T13:53:29;5.94;89.55
65573;SHT30;52214;50.940;13.996;2023-03-01T13:56:01;5.95;89.58
65573;SHT30;52214;50.940;13.996;2023-03-01T13:58:31;5.95;89.61
65573;SHT30;52214;50.940;13.996;2023-03-01T14:01:01;6.00;89.60
65573;SHT30;52214;50.940;13.996;2023-03-01T14:03:29;6.00;89.66
65573;SHT30;52214;50.940;13.996;2023-03-01T14:06:06;6.07;89.59
65573;SHT30;52214;50.940;13.996;2023-03-01T14:08:35;6.05;89.56
65573;SHT30;52214;50.940;13.996;2023-03-01T14:22:17;6.25;89.07
65573;SHT30;52214;50.940;13.996;2023-03-01T14:24:52;6.22;89.02
65573;SHT30;52214;50.940;13.996;2023-03-01T14:27:20;6.28;88.91
65573;SHT30;52214;50.940;13.996;2023-03-01T14:30:23;6.32;88.69
65573;SHT30;52214;50.940;13.996;2023-03-01T14:35:22;6.35;88.53
65573;SHT30;52214;50.940;13.996;2023-03-01T14:37:48;6.36;88.32
65573;SHT30;52214;50.940;13.996;2023-03-01T14:40:23;6.43;88.29
65573;SHT30;52214;50.940;13.996;2023-03-01T14:42:50;6.45;88.20
65573;SHT30;52214;50.940;13.996;2023-03-01T14:45:16;6.49;88.15
65573;SHT30;52214;50.940;13.996;2023-03-01T14:47:44;6.50;88.13
65573;SHT30;52214;50.940;13.996;2023-03-01T14:50:30;6.54;88.06
65573;SHT30;52214;50.940;13.996;2023-03-01T14:52:59;6.56;87.98
65573;SHT30;52214;50.940;13.996;2023-03-01T14:55:33;6.58;88.01
65573;SHT30;52214;50.940;13.996;2023-03-01T14:58:03;6.60;87.93
65573;SHT30;52214;50.940;13.996;2023-03-01T15:00:32;6.62;87.89
65573;SHT30;52214;50.940;13.996;2023-03-01T15:03:04;6.63;88.00
65573;SHT30;52214;50.940;13.996;2023-03-01T15:05:35;6.66;87.95
65573;SHT30;52214;50.940;13.996;2023-03-01T15:08:02;6.67;87.98
65573;SHT30;52214;50.940;13.996;2023-03-01T15:10:33;6.70;87.72
65573;SHT30;52214;50.940;13.996;2023-03-01T15:13:22;6.69;87.66
65573;SHT30;52214;50.940;13.996;2023-03-01T15:18:25;6.70;87.66
65573;SHT30;52214;50.940;13.996;2023-03-01T15:20:52;6.69;87.81
65573;SHT30;52214;50.940;13.996;2023-03-01T15:23:26;6.69;87.96
65573;SHT30;52214;50.940;13.996;2023-03-01T15:25:54;6.64;88.10
65573;SHT30;52214;50.940;13.996;2023-03-01T15:28:25;6.62;88.15
65573;SHT30;52214;50.940;13.996;2023-03-01T15:31:00;6.58;88.30
65573;SHT30;52214;50.940;13.996;2023-03-01T15:33:32;6.57;88.36
65573;SHT30;52214;50.940;13.996;2023-03-01T15:36:00;6.57;88.44
65573;SHT30;52214;50.940;13.996;2023-03-01T15:38:30;6.56;88.58
65573;SHT30;52214;50.940;13.996;2023-03-01T15:40:59;6.56;88.68
65573;SHT30;52214;50.940;13.996;2023-03-01T15:43:46;6.54;88.78
65573;SHT30;52214;50.940;13.996;2023-03-01T15:48:51;6.53;88.82
65573;SHT30;52214;50.940;13.996;2023-03-01T15:51:23;6.53;88.96
65573;SHT30;52214;50.940;13.996;2023-03-01T15:53:53;6.52;88.99
65573;SHT30;52214;50.940;13.996;2023-03-01T15:56:19;6.50;89.03
65573;SHT30;52214;50.940;13.996;2023-03-01T15:58:45;6.47;89.07
65573;SHT30;52214;50.940;13.996;2023-03-01T16:01:14;6.50;89.11
65573;SHT30;52214;50.940;13.996;2023-03-01T16:03:40;6.52;89.09
65573;SHT30;52214;50.940;13.996;2023-03-01T16:06:09;6.50;89.06
65573;SHT30;52214;50.940;13.996;2023-03-01T16:08:36;6.49;89.13
65573;SHT30;52214;50.940;13.996;2023-03-01T16:11:04;6.49;89.14
65573;SHT30;52214;50.940;13.996;2023-03-01T16:13:31;6.47;89.14
65573;SHT30;52214;50.940;13.996;2023-03-01T16:15:58;6.47;89.17
65573;SHT30;52214;50.940;13.996;2023-03-01T16:18:24;6.47;89.14
65573;SHT30;52214;50.940;13.996;2023-03-01T16:20:50;6.46;89.20
65573;SHT30;52214;50.940;13.996;2023-03-01T16:23:15;6.47;89.16
65573;SHT30;52214;50.940;13.996;2023-03-01T16:25:41;6.46;89.17
65573;SHT30;52214;50.940;13.996;2023-03-01T16:28:07;6.46;89.22
65573;SHT30;52214;50.940;13.996;2023-03-01T16:30:37;6.45;89.25
65573;SHT30;52214;50.940;13.996;2023-03-01T16:33:03;6.43;89.24
65573;SHT30;52214;50.940;13.996;2023-03-01T16:35:32;6.45;89.25
65573;SHT30;52214;50.940;13.996;2023-03-01T16:37:59;6.43;89.23
65573;SHT30;52214;50.940;13.996;2023-03-01T16:40:27;6.42;89.28
65573;SHT30;52214;50.940;13.996;2023-03-01T16:42:55;6.45;89.28
65573;SHT30;52214;50.940;13.996;2023-03-01T16:45:25;6.43;89.32
65573;SHT30;52214;50.940;13.996;2023-03-01T16:47:52;6.42;89.31
65573;SHT30;52214;50.940;13.996;2023-03-01T16:50:18;6.42;89.40
65573;SHT30;52214;50.940;13.996;2023-03-01T16:52:44;6.40;89.45
65573;SHT30;52214;50.940;13.996;2023-03-01T16:55:09;6.39;89.46
65573;SHT30;52214;50.940;13.996;2023-03-01T16:57:37;6.39;89.50
65573;SHT30;52214;50.940;13.996;2023-03-01T17:00:05;6.40;89.52
65573;SHT30;52214;50.940;13.996;2023-03-01T17:02:34;6.38;89.50
65573;SHT30;52214;50.940;13.996;2023-03-01T17:05:00;6.36;89.52
65573;SHT30;52214;50.940;13.996;2023-03-01T17:07:27;6.36;89.54
65573;SHT30;52214;50.940;13.996;2023-03-01T17:09:54;6.36;89.54
65573;SHT30;52214;50.940;13.996;2023-03-01T17:12:19;6.35;89.49
65573;SHT30;52214;50.940;13.996;2023-03-01T17:14:45;6.35;89.48
65573;SHT30;52214;50.940;13.996;2023-03-01T17:17:11;6.32;89.51